MMQTMMTO

Guest
Details From MMQT - QUERETARO INTERCONTINENTAL
To MMTO - Toluca Lic. Adolfo Lopez Mateos
Flight Number -
Tags generated
Created
Modified
Stats Distance 85 nm / 157 km
Max Altitude 4,800 ft / 1,463 m
Waypoints 3
Social Downloads 0
Likes 0
Share VATSIM

Download

Looking for another format? Having issues loading an existing format? Contact us
Advertisement - Login to hide

Notes

Basic altitude profile: - Ascent Rate: 2500ft/min - Ascent Speed: 250kts - Cruise Altitude: 10000ft - Cruise Speed: 420kts - Descent Rate: 1500ft/min - Descent Speed: 250kts Options: - Use NATs: yes - Use PACOTS: yes - Use low airways: yes - Use high airways: yes

Route

MMQT PTJ MMTO

ID Type Via Altitude Latitude Longitude Leg Dist Tot Dist Heading (true) Name
O MMQT APT - 0 ft / 0 m 20.61729˚ -100.18566˚ - 0 nm - QUERETARO INTERCONTINENTAL
PTJ VOR - 4,800 ft / 1,463 m 19.64569˚ -99.79803˚ 62 nm 62 nm 159° / 160° PASTEJE VOR-DME
O MMTO APT - 0 ft / 0 m 19.33707˚ -99.56601˚ 22 nm 85 nm 145° / 145° Toluca Lic. Adolfo Lopez Mateos

Altitude Profile

Advertisement - Login to hide

MMQT

Details ICAO MMQT (QRO)
Name QUERETARO INTERCONTINENTAL
Region Mexico
Timezone America/Mexico_City (UTC-6.0)
Stats Elevation 6,296 ft / 1,919 m (AMSL)
Location 20.617289° -100.185657°
Runways 1
Magnetic Variation 5.075° E

METAR

MMQT 171949Z 25009KT 7SM FEW025 SCT120 BKN250 22/07 A3027 RMK 8/538

Decode

TAF

Not found

Departure Runways

ID Width Length Bearing (true) Bearing (mag) Surface Threshold Offset Overrun Length
09 148 ft / 45 m 11,442 ft / 3,488 m 100.86° 95.79° Concrete 0 ft / 0 m 1,135 ft / 346 m
27 148 ft / 45 m 11,442 ft / 3,488 m 280.87° 275.80° Concrete 0 ft / 0 m 1,135 ft / 346 m

MMTO

Details ICAO MMTO (TLC)
Name Toluca Lic. Adolfo Lopez Mateos
Region Mexico
Timezone America/Mexico_City (UTC-6.0)
Stats Elevation 8,466 ft / 2,580 m (AMSL)
Location 19.337072° -99.566007°
Runways 1
Magnetic Variation 4.853° E

METAR

MMTO 171946Z 22003KT 6SM SCT070 OVC200 17/02 A3036 RMK 8/032 HZY CU

Decode

TAF

Not found

Destination Runways

ID Width Length Bearing (true) Bearing (mag) Surface Threshold Offset Overrun Length
15 148 ft / 45 m 13,825 ft / 4,214 m 156.90° 152.05° Asphalt 0 ft / 0 m 194 ft / 59 m
33 148 ft / 45 m 13,825 ft / 4,214 m 336.91° 332.06° Asphalt 545 ft / 166 m 194 ft / 59 m

Approach Navaids

Runway Type Ident Frequency Range Bearing (true) Bearing (mag) Slope Elevation
15 Localiser ITLC 109.50 MHz 18 nm / 33 km 156.95° 152.10° - 8,466 ft / 2,580 m (AMSL)
15 Glidescope ITLC 109.50 MHz 10 nm / 19 km 156.91° 152.05° 3.00° 8,466 ft / 2,580 m (AMSL)
15 DME ITLC 109.50 MHz 18 nm / 33 km - - - 8,466 ft / 2,580 m (AMSL)

Popular Alternatives